sensor_id;sensor_type;location;lat;lon;timestamp;temperature;humidity
4960;DHT22;2495;48.200;11.532;2023-03-13T07:32:01;11.00;68.10
4960;DHT22;2495;48.200;11.532;2023-03-13T07:38:03;11.10;67.40
4960;DHT22;2495;48.200;11.532;2023-03-13T07:43:27;11.20;66.90
4960;DHT22;2495;48.200;11.532;2023-03-13T07:48:35;11.30;66.70
4960;DHT22;2495;48.200;11.532;2023-03-13T08:21:27;11.90;65.10
4960;DHT22;2495;48.200;11.532;2023-03-13T08:26:29;12.20;64.60
4960;DHT22;2495;48.200;11.532;2023-03-13T08:31:43;12.40;63.20
4960;DHT22;2495;48.200;11.532;2023-03-13T08:49:33;12.60;65.10
4960;DHT22;2495;48.200;11.532;2023-03-13T08:54:35;13.60;63.20
4960;DHT22;2495;48.200;11.532;2023-03-13T08:59:36;14.00;62.10
4960;DHT22;2495;48.200;11.532;2023-03-13T09:05:01;14.60;62.10
4960;DHT22;2495;48.200;11.532;2023-03-13T09:10:14;16.00;61.80
4960;DHT22;2495;48.200;11.532;2023-03-13T09:15:15;17.20;57.90
4960;DHT22;2495;48.200;11.532;2023-03-13T09:20:42;17.10;57.00
4960;DHT22;2495;48.200;11.532;2023-03-13T09:25:42;17.60;56.50
4960;DHT22;2495;48.200;11.532;2023-03-13T09:30:46;19.50;52.60
4960;DHT22;2495;48.200;11.532;2023-03-13T09:36:09;21.70;48.20
4960;DHT22;2495;48.200;11.532;2023-03-13T09:46:29;24.50;44.40
4960;DHT22;2495;48.200;11.532;2023-03-13T09:51:39;24.20;43.30
4960;DHT22;2495;48.200;11.532;2023-03-13T09:57:24;24.60;40.30
4960;DHT22;2495;48.200;11.532;2023-03-13T10:01:57;26.30;37.20
4960;DHT22;2495;48.200;11.532;2023-03-13T10:07:12;25.50;34.60
4960;DHT22;2495;48.200;11.532;2023-03-13T10:40:57;23.80;39.40
4960;DHT22;2495;48.200;11.532;2023-03-13T10:51:21;21.70;42.30
4960;DHT22;2495;48.200;11.532;2023-03-13T10:56:29;21.80;42.80
4960;DHT22;2495;48.200;11.532;2023-03-13T11:13:50;22.40;42.80
4960;DHT22;2495;48.200;11.532;2023-03-13T11:32:02;23.50;43.30
4960;DHT22;2495;48.200;11.532;2023-03-13T12:09:54;28.50;34.50
4960;DHT22;2495;48.200;11.532;2023-03-13T12:15:46;27.00;35.40
4960;DHT22;2495;48.200;11.532;2023-03-13T12:33:18;25.10;38.50
4960;DHT22;2495;48.200;11.532;2023-03-13T12:38:32;25.40;38.10
4960;DHT22;2495;48.200;11.532;2023-03-13T12:43:31;26.40;37.60
4960;DHT22;2495;48.200;11.532;2023-03-13T12:48:54;26.50;35.70
4960;DHT22;2495;48.200;11.532;2023-03-13T12:59:40;25.40;37.90
4960;DHT22;2495;48.200;11.532;2023-03-13T13:04:44;26.10;38.00
4960;DHT22;2495;48.200;11.532;2023-03-13T13:15:21;27.60;36.50
4960;DHT22;2495;48.200;11.532;2023-03-13T13:25:46;27.30;35.80
4960;DHT22;2495;48.200;11.532;2023-03-13T13:30:52;26.80;36.10
4960;DHT22;2495;48.200;11.532;2023-03-13T13:46:17;26.00;38.00
4960;DHT22;2495;48.200;11.532;2023-03-13T14:01:30;24.30;40.70
4960;DHT22;2495;48.200;11.532;2023-03-13T14:06:37;24.00;41.10
4960;DHT22;2495;48.200;11.532;2023-03-13T14:12:37;23.90;41.70
4960;DHT22;2495;48.200;11.532;2023-03-13T14:17:40;23.80;42.70
4960;DHT22;2495;48.200;11.532;2023-03-13T14:22:46;23.50;42.10
4960;DHT22;2495;48.200;11.532;2023-03-13T14:27:48;23.40;42.40
4960;DHT22;2495;48.200;11.532;2023-03-13T14:32:49;23.40;42.20
4960;DHT22;2495;48.200;11.532;2023-03-13T14:44:23;22.80;42.90
4960;DHT22;2495;48.200;11.532;2023-03-13T14:49:24;22.60;42.90
4960;DHT22;2495;48.200;11.532;2023-03-13T14:54:50;22.60;42.60
4960;DHT22;2495;48.200;11.532;2023-03-13T14:59:39;22.50;42.80
4960;DHT22;2495;48.200;11.532;2023-03-13T15:04:49;22.40;42.30
4960;DHT22;2495;48.200;11.532;2023-03-13T15:09:57;22.40;42.90
4960;DHT22;2495;48.200;11.532;2023-03-13T15:14:59;22.20;42.70
4960;DHT22;2495;48.200;11.532;2023-03-13T15:20:00;22.30;43.10
4960;DHT22;2495;48.200;11.532;2023-03-13T15:25:02;22.20;42.60
4960;DHT22;2495;48.200;11.532;2023-03-13T15:30:04;22.30;43.70
4960;DHT22;2495;48.200;11.532;2023-03-13T15:40:26;22.30;43.40
4960;DHT22;2495;48.200;11.532;2023-03-13T15:45:30;22.20;43.70
4960;DHT22;2495;48.200;11.532;2023-03-13T15:50:31;22.20;43.90
4960;DHT22;2495;48.200;11.532;2023-03-13T15:55:32;22.00;43.50
4960;DHT22;2495;48.200;11.532;2023-03-13T16:00:51;21.80;44.00
4960;DHT22;2495;48.200;11.532;2023-03-13T16:05:53;21.80;44.10
4960;DHT22;2495;48.200;11.532;2023-03-13T16:10:54;22.20;43.90
4960;DHT22;2495;48.200;11.532;2023-03-13T16:15:55;22.30;44.20
4960;DHT22;2495;48.200;11.532;2023-03-13T16:20:56;22.00;43.80
4960;DHT22;2495;48.200;11.532;2023-03-13T16:25:58;21.50;45.10
4960;DHT22;2495;48.200;11.532;2023-03-13T16:30:59;21.20;44.90
4960;DHT22;2495;48.200;11.532;2023-03-13T16:36:00;21.00;45.40
4960;DHT22;2495;48.200;11.532;2023-03-13T16:41:02;21.00;45.90
4960;DHT22;2495;48.200;11.532;2023-03-13T16:46:07;21.00;45.70
4960;DHT22;2495;48.200;11.532;2023-03-13T16:51:05;20.70;46.40
4960;DHT22;2495;48.200;11.532;2023-03-13T16:56:10;20.40;46.60
4960;DHT22;2495;48.200;11.532;2023-03-13T17:01:08;20.20;47.60
4960;DHT22;2495;48.200;11.532;2023-03-13T17:06:13;20.20;47.10
4960;DHT22;2495;48.200;11.532;2023-03-13T17:11:14;20.00;47.90
4960;DHT22;2495;48.200;11.532;2023-03-13T17:16:25;19.70;48.80
4960;DHT22;2495;48.200;11.532;2023-03-13T17:21:25;19.40;50.40
4960;DHT22;2495;48.200;11.532;2023-03-13T17:26:27;19.40;49.90
4960;DHT22;2495;48.200;11.532;2023-03-13T17:31:27;19.20;50.60
4960;DHT22;2495;48.200;11.532;2023-03-13T17:36:28;19.40;50.50
4960;DHT22;2495;48.200;11.532;2023-03-13T17:41:31;19.60;49.80
4960;DHT22;2495;48.200;11.532;2023-03-13T17:46:44;19.40;49.30
4960;DHT22;2495;48.200;11.532;2023-03-13T17:51:44;19.30;49.90
4960;DHT22;2495;48.200;11.532;2023-03-13T17:56:46;19.10;49.00
4960;DHT22;2495;48.200;11.532;2023-03-13T18:01:50;18.80;49.50
4960;DHT22;2495;48.200;11.532;2023-03-13T18:06:51;18.60;50.00
4960;DHT22;2495;48.200;11.532;2023-03-13T18:11:53;18.30;49.40
4960;DHT22;2495;48.200;11.532;2023-03-13T18:16:54;18.20;49.70
4960;DHT22;2495;48.200;11.532;2023-03-13T18:21:56;18.00;50.00
4960;DHT22;2495;48.200;11.532;2023-03-13T18:26:58;17.80;49.20
4960;DHT22;2495;48.200;11.532;2023-03-13T18:31:59;17.70;49.20
4960;DHT22;2495;48.200;11.532;2023-03-13T18:37:00;17.60;49.30
4960;DHT22;2495;48.200;11.532;2023-03-13T18:42:14;17.50;49.10
4960;DHT22;2495;48.200;11.532;2023-03-13T18:47:27;17.50;50.20
4960;DHT22;2495;48.200;11.532;2023-03-13T18:52:46;17.60;49.00
4960;DHT22;2495;48.200;11.532;2023-03-13T18:58:19;17.40;48.90
4960;DHT22;2495;48.200;11.532;2023-03-13T19:19:52;17.10;48.60
4960;DHT22;2495;48.200;11.532;2023-03-13T19:25:00;17.00;48.30
4960;DHT22;2495;48.200;11.532;2023-03-13T19:41:43;16.70;49.20
4960;DHT22;2495;48.200;11.532;2023-03-13T19:46:59;16.60;49.10
4960;DHT22;2495;48.200;11.532;2023-03-13T19:52:07;16.50;48.50
4960;DHT22;2495;48.200;11.532;2023-03-13T19:57:09;16.40;49.10
4960;DHT22;2495;48.200;11.532;2023-03-13T20:02:11;16.60;49.20
4960;DHT22;2495;48.200;11.532;2023-03-13T20:07:16;16.80;49.50
4960;DHT22;2495;48.200;11.532;2023-03-13T20:12:24;16.90;49.50
4960;DHT22;2495;48.200;11.532;2023-03-13T20:17:28;16.60;49.90
4960;DHT22;2495;48.200;11.532;2023-03-13T20:22:38;16.60;50.10
4960;DHT22;2495;48.200;11.532;2023-03-13T20:28:02;16.40;49.50
4960;DHT22;2495;48.200;11.532;2023-03-13T20:33:04;16.20;50.50
4960;DHT22;2495;48.200;11.532;2023-03-13T20:38:05;16.20;51.20
4960;DHT22;2495;48.200;11.532;2023-03-13T20:43:07;16.30;51.20
4960;DHT22;2495;48.200;11.532;2023-03-13T20:48:09;16.10;50.90
4960;DHT22;2495;48.200;11.532;2023-03-13T20:53:10;15.90;51.40
4960;DHT22;2495;48.200;11.532;2023-03-13T20:58:11;15.60;51.80
4960;DHT22;2495;48.200;11.532;2023-03-13T21:03:13;15.40;52.50
4960;DHT22;2495;48.200;11.532;2023-03-13T21:08:14;15.20;52.80
4960;DHT22;2495;48.200;11.532;2023-03-13T21:13:15;15.10;52.50
4960;DHT22;2495;48.200;11.532;2023-03-13T21:18:17;15.10;52.80
4960;DHT22;2495;48.200;11.532;2023-03-13T21:23:18;15.00;53.10
4960;DHT22;2495;48.200;11.532;2023-03-13T21:28:19;15.00;53.20
4960;DHT22;2495;48.200;11.532;2023-03-13T21:33:21;15.20;53.60
4960;DHT22;2495;48.200;11.532;2023-03-13T21:38:22;15.60;53.20
4960;DHT22;2495;48.200;11.532;2023-03-13T21:43:23;15.60;52.30
4960;DHT22;2495;48.200;11.532;2023-03-13T21:48:24;15.40;52.20
4960;DHT22;2495;48.200;11.532;2023-03-13T21:53:26;15.30;51.90
4960;DHT22;2495;48.200;11.532;2023-03-13T21:58:27;15.20;51.50
4960;DHT22;2495;48.200;11.532;2023-03-13T22:03:31;15.20;51.50
4960;DHT22;2495;48.200;11.532;2023-03-13T22:08:33;15.20;52.00
4960;DHT22;2495;48.200;11.532;2023-03-13T22:13:34;15.30;52.50
4960;DHT22;2495;48.200;11.532;2023-03-13T22:18:36;15.50;53.10
4960;DHT22;2495;48.200;11.532;2023-03-13T22:23:37;15.50;53.60
4960;DHT22;2495;48.200;11.532;2023-03-13T22:28:39;15.40;53.20
4960;DHT22;2495;48.200;11.532;2023-03-13T22:33:40;15.60;54.10
4960;DHT22;2495;48.200;11.532;2023-03-13T22:38:41;15.60;54.30
4960;DHT22;2495;48.200;11.532;2023-03-13T22:43:43;15.50;55.80
4960;DHT22;2495;48.200;11.532;2023-03-13T22:48:47;15.30;57.20
4960;DHT22;2495;48.200;11.532;2023-03-13T22:53:49;15.50;58.00
4960;DHT22;2495;48.200;11.532;2023-03-13T22:58:49;15.50;59.20
4960;DHT22;2495;48.200;11.532;2023-03-13T23:03:51;15.70;61.00
4960;DHT22;2495;48.200;11.532;2023-03-13T23:08:52;15.60;61.00
4960;DHT22;2495;48.200;11.532;2023-03-13T23:13:53;15.30;61.90
4960;DHT22;2495;48.200;11.532;2023-03-13T23:18:55;15.10;63.10
4960;DHT22;2495;48.200;11.532;2023-03-13T23:24:02;15.00;63.10
4960;DHT22;2495;48.200;11.532;2023-03-13T23:29:04;14.90;64.20
4960;DHT22;2495;48.200;11.532;2023-03-13T23:34:05;14.80;63.30
4960;DHT22;2495;48.200;11.532;2023-03-13T23:39:06;14.70;63.60
4960;DHT22;2495;48.200;11.532;2023-03-13T23:44:08;14.70;64.30
4960;DHT22;2495;48.200;11.532;2023-03-13T23:49:09;14.60;64.00
4960;DHT22;2495;48.200;11.532;2023-03-13T23:54:10;14.60;65.20
4960;DHT22;2495;48.200;11.532;2023-03-13T23:59:14;14.80;66.00
